TAF Text Data
IDs:
Format:
Raw Decoded Include METAR

Data at: 0747 UTC 16 Oct 2018

KDDC 160652Z AUTO 25006KT 8SM CLR 01/M04 A3033 RMK AO2 SLP283 T00111039

KDDC 160520Z 1606/1706 25006KT P6SM SKC